Terminal Aerodrome Forecast
Issued by NWS Corpus Christi, TX

Home | Current Version | Previous Version | Text Only | Print | Product List | Glossary On
Versions: 1 2 3 4 5 6 7 8 9 10 11 12 13 14 15 16 17
038
FTUS44 KCRP 242101 AAA
TAFVCT
TAF AMD
KVCT 242101Z 2421/2518 05008KT P6SM VCSH FEW030 BKN150
     FM250100 11006KT P6SM SCT020 BKN150
     FM250700 08004KT 5SM BR VCSH BKN015 BKN150
     FM251600 06006KT P6SM BKN050=

USA.gov is the U.S. government's official web portal to all federal, state and local government web resources and services.